createdAt,value
2022-09-11T00:01:59.625Z,10.77
2022-09-11T00:04:46.770Z,10.50
2022-09-11T00:07:41.569Z,10.27
2022-09-11T00:10:35.584Z,10.77
2022-09-11T00:13:23.505Z,9.80
2022-09-11T00:16:36.588Z,9.90
2022-09-11T00:22:30.741Z,9.57
2022-09-11T00:25:24.580Z,9.52
2022-09-11T00:28:17.066Z,10.23
2022-09-11T00:31:22.651Z,9.80
2022-09-11T00:34:09.800Z,10.35
2022-09-11T00:37:04.627Z,10.48
2022-09-11T00:39:52.752Z,10.60
2022-09-11T00:42:46.662Z,9.70
2022-09-11T00:45:35.600Z,9.90
2022-09-11T00:48:31.680Z,10.48
2022-09-11T00:51:23.221Z,10.77
2022-09-11T00:54:20.657Z,11.15
2022-09-11T00:57:16.638Z,11.77
2022-09-11T01:00:05.711Z,12.18
2022-09-11T01:03:00.666Z,12.65
2022-09-11T01:05:54.656Z,12.02
2022-09-11T01:08:48.710Z,11.60
2022-09-11T01:11:46.050Z,11.80
2022-09-11T01:14:54.686Z,12.50
2022-09-11T01:17:44.712Z,12.68
2022-09-11T01:21:19.679Z,12.70
2022-09-11T01:24:57.651Z,11.98
2022-09-11T01:27:56.690Z,12.52
2022-09-11T01:30:57.706Z,13.30
2022-09-11T01:33:57.735Z,12.30
2022-09-11T01:36:59.729Z,13.23
2022-09-11T01:39:55.155Z,12.87
2022-09-11T01:42:49.719Z,13.07
2022-09-11T01:45:39.813Z,12.85
2022-09-11T01:48:38.720Z,12.55
2022-09-11T01:51:29.530Z,13.05
2022-09-11T01:54:26.719Z,12.40
2022-09-11T01:57:21.779Z,12.85
2022-09-11T02:00:17.760Z,13.10
2022-09-11T02:03:14.292Z,12.68
2022-09-11T02:06:22.763Z,12.45
2022-09-11T02:09:19.750Z,12.55
2022-09-11T02:12:16.778Z,12.43
2022-09-11T02:15:05.411Z,13.77
2022-09-11T02:18:09.758Z,13.57
2022-09-11T02:20:57.219Z,15.38
2022-09-11T02:23:51.804Z,17.05
2022-09-11T02:26:44.857Z,17.30
2022-09-11T02:29:39.810Z,17.42
2022-09-11T02:32:27.716Z,16.70
2022-09-11T02:35:22.995Z,16.25
2022-09-11T02:38:26.448Z,16.65
2022-09-11T02:41:35.828Z,16.77
2022-09-11T02:45:07.985Z,15.85
2022-09-11T02:48:38.805Z,16.85
2022-09-11T02:51:41.853Z,18.13
2022-09-11T02:54:52.976Z,16.95
2022-09-11T02:57:56.890Z,17.77
2022-09-11T03:00:44.339Z,18.02
2022-09-11T03:03:51.859Z,17.52
2022-09-11T03:06:39.045Z,16.75
2022-09-11T03:09:32.826Z,17.27
2022-09-11T03:12:26.847Z,17.20
2022-09-11T03:15:20.865Z,18.35
2022-09-11T03:18:08.091Z,17.30
2022-09-11T03:21:01.863Z,17.60
2022-09-11T03:23:48.909Z,17.42
2022-09-11T03:26:43.847Z,17.50
2022-09-11T03:29:31.689Z,17.00
2022-09-11T03:32:24.873Z,17.17
2022-09-11T03:35:18.884Z,18.35
2022-09-11T03:38:12.968Z,18.33
2022-09-11T03:41:00.109Z,18.80
2022-09-11T03:43:53.921Z,17.08
2022-09-11T03:46:41.028Z,16.50
2022-09-11T03:49:34.874Z,17.67
2022-09-11T03:52:24.109Z,18.27
2022-09-11T03:55:17.919Z,17.20
2022-09-11T03:58:06.925Z,18.42
2022-09-11T04:01:00.969Z,19.00
2022-09-11T04:03:48.176Z,18.92
2022-09-11T04:06:42.054Z,19.50
2022-09-11T04:09:35.953Z,19.08
2022-09-11T04:12:35.988Z,18.73
2022-09-11T04:15:29.973Z,20.63
2022-09-11T04:18:23.987Z,20.98
2022-09-11T04:21:19.970Z,18.70
2022-09-11T04:24:07.076Z,19.40
2022-09-11T04:27:01.104Z,19.50
2022-09-11T04:29:54.964Z,20.33
2022-09-11T04:32:48.960Z,18.85
2022-09-11T04:35:47.009Z,17.98
2022-09-11T04:38:34.126Z,18.50
2022-09-11T04:41:27.953Z,18.50
2022-09-11T04:44:15.208Z,19.02
2022-09-11T04:47:09.004Z,19.55
2022-09-11T04:50:03.974Z,18.05
2022-09-11T04:52:57.989Z,18.35
2022-09-11T04:55:45.998Z,18.20
2022-09-11T04:58:40.000Z,18.15
2022-09-11T05:01:36.063Z,17.60
2022-09-11T05:04:26.142Z,17.02
2022-09-11T05:07:21.085Z,17.38
2022-09-11T05:10:08.528Z,16.52
2022-09-11T05:13:02.073Z,16.98
2022-09-11T05:15:49.076Z,17.33
2022-09-11T05:18:43.008Z,17.05
2022-09-11T05:21:31.893Z,18.17
2022-09-11T05:24:32.053Z,18.77
2022-09-11T05:27:26.011Z,18.23
2022-09-11T05:30:20.076Z,17.42
2022-09-11T05:33:07.674Z,16.67
2022-09-11T05:36:09.074Z,17.17
2022-09-11T05:38:56.064Z,16.23
2022-09-11T05:41:50.167Z,16.15
2022-09-11T05:44:44.092Z,15.32
2022-09-11T05:47:38.134Z,14.70
2022-09-11T05:50:25.741Z,16.60
2022-09-11T05:53:20.061Z,16.52
2022-09-11T05:56:16.116Z,18.42
2022-09-11T05:59:03.440Z,18.55
2022-09-11T06:01:57.133Z,17.08
2022-09-11T06:04:51.098Z,16.98
2022-09-11T06:07:38.132Z,16.13
2022-09-11T06:10:32.093Z,16.25
2022-09-11T06:13:19.211Z,15.10
2022-09-11T06:16:18.907Z,16.30
2022-09-11T06:19:13.134Z,16.20
2022-09-11T06:22:07.107Z,16.23
2022-09-11T06:25:01.107Z,15.23
2022-09-11T06:27:55.120Z,14.45
2022-09-11T06:30:42.205Z,14.40
2022-09-11T06:33:43.254Z,13.95
2022-09-11T06:36:38.187Z,14.15
2022-09-11T06:39:25.831Z,12.68
2022-09-11T06:42:19.195Z,12.20
2022-09-11T06:45:14.174Z,11.85
2022-09-11T06:48:08.592Z,10.38
2022-09-11T06:51:02.176Z,10.32
2022-09-11T06:53:53.241Z,9.43
2022-09-11T06:56:47.182Z,9.13
2022-09-11T06:59:41.282Z,8.25
2022-09-11T07:02:28.389Z,7.10
2022-09-11T07:05:22.283Z,6.35
2022-09-11T07:08:09.338Z,6.93
2022-09-11T07:11:10.231Z,6.50
2022-09-11T07:13:57.288Z,5.88
2022-09-11T07:16:51.280Z,5.88
2022-09-11T07:19:38.340Z,5.68
2022-09-11T07:22:32.211Z,4.43
2022-09-11T07:25:19.309Z,5.93
2022-09-11T07:28:13.258Z,6.00
2022-09-11T07:31:12.299Z,6.30
2022-09-11T07:34:06.259Z,5.10
2022-09-11T07:36:53.295Z,6.47
2022-09-11T07:39:47.333Z,5.60
2022-09-11T07:42:34.430Z,4.80
2022-09-11T07:45:28.329Z,20.50
2022-09-11T07:48:22.244Z,17.45
2022-09-11T07:51:11.760Z,10.75
2022-09-11T07:54:06.277Z,8.52
2022-09-11T07:56:53.276Z,6.75
2022-09-11T07:59:47.280Z,6.97
2022-09-11T08:02:41.327Z,5.97
2022-09-11T08:05:28.440Z,7.22
2022-09-11T08:08:22.386Z,10.40
2022-09-11T08:11:12.479Z,9.05
2022-09-11T08:14:06.369Z,8.20
2022-09-11T08:17:01.613Z,5.85
2022-09-11T08:19:48.822Z,4.45
2022-09-11T08:22:42.322Z,3.67
2022-09-11T08:25:29.360Z,3.83
2022-09-11T08:28:23.300Z,4.32
2022-09-11T08:31:11.618Z,3.60
2022-09-11T08:34:05.319Z,2.85
2022-09-11T08:36:59.351Z,2.20
2022-09-11T08:39:53.405Z,2.17
2022-09-11T08:42:50.328Z,1.60
2022-09-11T08:45:44.385Z,1.73
2022-09-11T08:48:54.391Z,1.65
2022-09-11T08:51:48.338Z,2.75
2022-09-11T08:54:44.390Z,2.20
2022-09-11T08:58:06.476Z,4.03
2022-09-11T09:01:24.071Z,3.22
2022-09-11T09:04:34.379Z,2.60
2022-09-11T09:07:46.350Z,1.77
2022-09-11T09:10:59.381Z,1.93
2022-09-11T09:14:07.920Z,1.80
2022-09-11T09:17:18.438Z,1.42
2022-09-11T09:20:23.090Z,1.50
2022-09-11T09:23:30.458Z,1.00
2022-09-11T09:26:19.126Z,0.90
2022-09-11T09:29:20.448Z,0.90
2022-09-11T09:32:21.427Z,1.00
2022-09-11T09:35:46.478Z,1.08
2022-09-11T09:38:40.453Z,1.35
2022-09-11T09:41:57.427Z,1.10
2022-09-11T09:45:31.478Z,0.80
2022-09-11T09:48:18.510Z,0.73
2022-09-11T09:51:12.445Z,1.00
2022-09-11T09:54:08.475Z,1.17
2022-09-11T09:57:17.474Z,1.60
2022-09-11T10:00:12.457Z,2.78
2022-09-11T10:03:06.465Z,2.40
2022-09-11T10:05:55.424Z,2.67
2022-09-11T10:08:52.450Z,1.75
2022-09-11T10:11:47.505Z,2.00
2022-09-11T10:14:58.544Z,2.92
2022-09-11T10:17:46.095Z,2.45
2022-09-11T10:20:41.531Z,2.50
2022-09-11T10:23:35.531Z,1.63
2022-09-11T10:26:34.589Z,1.65
2022-09-11T10:29:36.511Z,1.50
2022-09-11T10:32:31.533Z,2.20
2022-09-11T10:35:27.950Z,1.60
2022-09-11T10:38:24.528Z,2.83
2022-09-11T10:41:21.587Z,2.20
2022-09-11T10:44:16.058Z,2.65
2022-09-11T10:47:22.531Z,2.15
2022-09-11T10:50:23.103Z,2.30
2022-09-11T10:53:33.579Z,3.67
2022-09-11T10:56:21.528Z,3.53
2022-09-11T10:59:23.551Z,3.60
2022-09-11T11:02:28.646Z,3.10
2022-09-11T11:06:03.699Z,3.90
2022-09-11T11:09:06.232Z,4.65
2022-09-11T11:12:39.603Z,2.88
2022-09-11T11:15:51.083Z,4.05
2022-09-11T11:19:15.614Z,2.05
2022-09-11T11:22:30.620Z,1.70
2022-09-11T11:25:41.683Z,1.30
2022-09-11T11:29:16.667Z,1.05
2022-09-11T11:32:22.619Z,1.50
2022-09-11T11:35:23.307Z,1.48
2022-09-11T11:38:28.639Z,1.17
2022-09-11T11:41:29.649Z,1.20
2022-09-11T11:44:33.715Z,2.35
2022-09-11T11:47:35.627Z,1.77
2022-09-11T11:50:36.353Z,1.70
2022-09-11T11:53:36.634Z,1.40
2022-09-11T11:56:34.013Z,1.20
2022-09-11T11:59:38.632Z,1.80
2022-09-11T12:02:33.466Z,1.40
2022-09-11T12:05:40.677Z,2.05
2022-09-11T12:08:27.788Z,1.27
2022-09-11T12:11:24.671Z,1.15
2022-09-11T12:14:34.540Z,1.40
2022-09-11T12:17:36.663Z,1.85
2022-09-11T12:20:38.707Z,1.35
2022-09-11T12:23:39.687Z,1.73
2022-09-11T12:26:27.636Z,1.50
2022-09-11T12:29:22.700Z,1.30
2022-09-11T12:32:22.717Z,0.90
2022-09-11T12:35:41.724Z,1.00
2022-09-11T12:38:45.721Z,1.00
2022-09-11T12:41:35.284Z,1.00
2022-09-11T12:44:59.741Z,0.93
2022-09-11T12:47:53.781Z,1.27
2022-09-11T12:50:54.151Z,0.85
2022-09-11T12:53:52.749Z,0.80
2022-09-11T12:56:53.770Z,1.02
2022-09-11T12:59:44.166Z,0.60
2022-09-11T13:02:50.755Z,0.60
2022-09-11T13:05:39.784Z,0.60
2022-09-11T13:08:36.737Z,0.43
2022-09-11T13:11:51.811Z,0.60
2022-09-11T13:14:50.577Z,1.10
2022-09-11T13:17:53.796Z,0.70
2022-09-11T13:20:47.781Z,0.80
2022-09-11T13:23:41.897Z,0.63
2022-09-11T13:26:32.754Z,0.60
2022-09-11T13:29:26.825Z,0.60
2022-09-11T13:32:35.101Z,0.65
2022-09-11T13:35:33.808Z,0.70
2022-09-11T13:38:25.165Z,0.80
2022-09-11T13:41:26.889Z,0.93
2022-09-11T13:44:36.816Z,1.00
2022-09-11T13:47:30.837Z,0.80
2022-09-11T13:50:18.570Z,0.70
2022-09-11T13:53:11.819Z,0.40
2022-09-11T13:56:05.836Z,0.57
2022-09-11T13:58:53.674Z,0.50
2022-09-11T14:02:02.859Z,0.50
2022-09-11T14:04:52.372Z,0.40
2022-09-11T14:08:02.913Z,0.50
2022-09-11T14:10:55.347Z,0.57
2022-09-11T14:13:56.872Z,0.40
2022-09-11T14:16:53.091Z,0.47
2022-09-11T14:19:49.906Z,0.30
2022-09-11T14:22:37.035Z,0.50
2022-09-11T14:25:30.879Z,0.70
2022-09-11T14:28:41.220Z,0.65
2022-09-11T14:31:40.906Z,0.50
2022-09-11T14:34:29.062Z,0.60
2022-09-11T14:37:23.908Z,0.50
2022-09-11T14:40:21.902Z,0.40
2022-09-11T14:43:17.917Z,0.60
2022-09-11T14:46:11.945Z,0.47
2022-09-11T14:49:05.999Z,0.50
2022-09-11T14:51:58.741Z,0.50
2022-09-11T14:54:53.964Z,0.60
2022-09-11T14:57:41.576Z,0.60
2022-09-11T15:00:34.950Z,0.70
2022-09-11T15:03:24.466Z,0.60
2022-09-11T15:06:26.915Z,0.60
2022-09-11T15:12:06.954Z,0.50
2022-09-11T15:15:01.125Z,0.52
2022-09-11T15:17:56.200Z,0.40
2022-09-11T15:20:43.303Z,0.50
2022-09-11T15:23:43.015Z,0.50
2022-09-11T15:26:36.958Z,0.50
2022-09-11T15:29:31.976Z,0.50
2022-09-11T15:32:21.097Z,0.50
2022-09-11T15:35:14.974Z,0.60
2022-09-11T15:38:04.493Z,0.50
2022-09-11T15:41:03.007Z,0.52
2022-09-11T15:43:50.575Z,0.40
2022-09-11T15:46:44.030Z,0.70
2022-09-11T15:49:38.048Z,0.57
2022-09-11T15:52:34.064Z,0.55
2022-09-11T15:55:21.181Z,0.50
2022-09-11T15:58:15.053Z,0.40
2022-09-11T16:01:03.338Z,0.60
2022-09-11T16:04:02.048Z,0.50
2022-09-11T16:06:50.087Z,0.50
2022-09-11T16:09:44.038Z,0.43
2022-09-11T16:12:31.045Z,0.50
2022-09-11T16:15:25.045Z,0.32
2022-09-11T16:18:12.469Z,0.40
2022-09-11T16:21:06.073Z,0.40
2022-09-11T16:23:56.763Z,0.50
2022-09-11T16:26:53.086Z,0.40
2022-09-11T16:32:54.090Z,0.52
2022-09-11T16:35:41.179Z,0.40
2022-09-11T16:38:36.104Z,0.50
2022-09-11T16:41:23.739Z,0.50
2022-09-11T16:44:21.103Z,0.60
2022-09-11T16:47:08.218Z,0.70
2022-09-11T16:50:06.878Z,0.60
2022-09-11T16:53:08.104Z,0.60
2022-09-11T16:56:03.105Z,0.70
2022-09-11T16:58:50.696Z,0.63
2022-09-11T17:01:45.251Z,0.50
2022-09-11T17:04:39.205Z,0.70
2022-09-11T17:07:33.150Z,0.65
2022-09-11T17:10:20.298Z,0.50
2022-09-11T17:13:14.169Z,0.65
2022-09-11T17:16:03.440Z,0.50
2022-09-11T17:19:03.203Z,0.57
2022-09-11T17:21:57.191Z,0.60
2022-09-11T17:24:44.503Z,0.60
2022-09-11T17:27:38.157Z,0.52
2022-09-11T17:30:25.416Z,0.57
2022-09-11T17:33:21.157Z,0.60
2022-09-11T17:36:10.081Z,0.60
2022-09-11T17:39:06.192Z,0.63
2022-09-11T17:41:53.253Z,0.70
2022-09-11T17:44:48.179Z,0.70
2022-09-11T17:47:43.200Z,0.60
2022-09-11T17:50:30.372Z,0.60
2022-09-11T17:53:24.283Z,0.70
2022-09-11T17:56:30.260Z,0.75
2022-09-11T17:59:24.244Z,0.55
2022-09-11T18:02:21.377Z,1.00
2022-09-11T18:05:08.863Z,0.85
2022-09-11T18:08:06.203Z,0.95
2022-09-11T18:11:06.220Z,1.20
2022-09-11T18:13:54.763Z,1.10
2022-09-11T18:16:53.260Z,1.40
2022-09-11T18:19:40.400Z,1.38
2022-09-11T18:22:35.268Z,1.70
2022-09-11T18:25:25.161Z,1.85
2022-09-11T18:28:19.898Z,2.40
2022-09-11T18:31:07.387Z,3.40
2022-09-11T18:34:04.349Z,4.90
2022-09-11T18:36:59.876Z,5.03
2022-09-11T18:39:48.700Z,5.22
2022-09-11T18:42:42.497Z,5.57
2022-09-11T18:45:37.325Z,4.60
2022-09-11T18:48:31.305Z,4.57
2022-09-11T18:51:28.318Z,4.25
2022-09-11T18:54:17.758Z,3.92
2022-09-11T18:57:11.430Z,3.67
2022-09-11T19:00:05.500Z,3.47
2022-09-11T19:03:02.386Z,3.40
2022-09-11T19:05:57.340Z,2.75
2022-09-11T19:08:53.470Z,2.78
2022-09-11T19:11:41.474Z,2.78
2022-09-11T19:14:35.400Z,3.10
2022-09-11T19:17:29.358Z,2.90
2022-09-11T19:20:16.564Z,2.70
2022-09-11T19:23:10.344Z,2.78
2022-09-11T19:26:18.390Z,3.55
2022-09-11T19:29:13.380Z,4.80
2022-09-11T19:32:01.059Z,4.85
2022-09-11T19:34:54.357Z,6.32
2022-09-11T19:37:42.075Z,7.03
2022-09-11T19:40:35.400Z,7.13
2022-09-11T19:43:23.714Z,6.72
2022-09-11T19:46:26.481Z,6.32
2022-09-11T19:49:14.404Z,5.65
2022-09-11T19:52:08.395Z,5.07
2022-09-11T19:55:02.399Z,4.60
2022-09-11T19:57:56.402Z,4.40
2022-09-11T20:00:43.614Z,4.25
2022-09-11T20:03:38.413Z,4.20
2022-09-11T20:06:34.458Z,3.80
2022-09-11T20:09:32.506Z,3.50
2022-09-11T20:12:27.410Z,4.00
2022-09-11T20:15:14.590Z,4.10
2022-09-11T20:18:08.436Z,4.18
2022-09-11T20:21:02.463Z,3.88
2022-09-11T20:24:00.541Z,4.57
2022-09-11T20:26:54.464Z,4.45
2022-09-11T20:29:43.370Z,4.75
2022-09-11T20:32:37.449Z,5.38
2022-09-11T20:35:31.461Z,6.43
2022-09-11T20:38:18.484Z,7.00
2022-09-11T20:41:14.508Z,7.13
2022-09-11T20:44:03.956Z,7.63
2022-09-11T20:46:57.728Z,8.30
2022-09-11T20:49:44.880Z,8.57
2022-09-11T20:52:39.816Z,8.90
2022-09-11T20:55:33.514Z,8.57
2022-09-11T20:58:20.692Z,8.13
2022-09-11T21:01:18.557Z,7.63
2022-09-11T21:04:12.495Z,7.65
2022-09-11T21:07:00.698Z,7.70
2022-09-11T21:09:54.512Z,6.90
2022-09-11T21:12:48.543Z,7.00
2022-09-11T21:15:44.917Z,6.85
2022-09-11T21:18:38.581Z,6.60
2022-09-11T21:21:33.577Z,6.55
2022-09-11T21:24:27.237Z,6.60
2022-09-11T21:27:20.528Z,6.32
2022-09-11T21:30:14.532Z,6.45
2022-09-11T21:33:08.540Z,6.30
2022-09-11T21:35:55.907Z,6.13
2022-09-11T21:38:49.576Z,6.43
2022-09-11T21:41:43.575Z,6.20
2022-09-11T21:44:30.675Z,6.30
2022-09-11T21:47:24.562Z,6.25
2022-09-11T21:50:18.626Z,6.38
2022-09-11T21:53:13.578Z,6.35
2022-09-11T21:56:07.695Z,7.20
2022-09-11T21:59:01.616Z,6.78
2022-09-11T22:01:48.716Z,6.57
2022-09-11T22:04:42.587Z,6.50
2022-09-11T22:07:38.587Z,6.47
2022-09-11T22:10:32.670Z,7.00
2022-09-11T22:13:26.590Z,6.93
2022-09-11T22:16:17.056Z,7.60
2022-09-11T22:19:12.605Z,7.60
2022-09-11T22:22:06.616Z,7.65
2022-09-11T22:24:53.728Z,7.20
2022-09-11T22:27:58.624Z,7.63
2022-09-11T22:30:52.661Z,8.18
2022-09-11T22:33:47.618Z,8.18
2022-09-11T22:36:41.629Z,8.05
2022-09-11T22:39:29.369Z,8.45
2022-09-11T22:42:22.617Z,9.20
2022-09-11T22:45:10.238Z,8.73
2022-09-11T22:48:05.657Z,10.05
2022-09-11T22:51:00.653Z,9.23
2022-09-11T22:53:54.685Z,9.85
2022-09-11T22:56:48.687Z,10.65
2022-09-11T22:59:43.656Z,10.07
2022-09-11T23:02:30.729Z,10.20
2022-09-11T23:05:42.690Z,9.85
2022-09-11T23:08:41.719Z,10.80
2022-09-11T23:11:35.742Z,10.88
2022-09-11T23:14:22.782Z,10.85
2022-09-11T23:17:16.701Z,11.48
2022-09-11T23:20:10.737Z,12.52
2022-09-11T23:22:58.322Z,11.50
2022-09-11T23:25:53.704Z,11.73
2022-09-11T23:28:40.981Z,11.38
2022-09-11T23:31:39.770Z,11.05
2022-09-11T23:34:26.910Z,11.85
2022-09-11T23:37:20.742Z,11.35
2022-09-11T23:40:08.558Z,11.93
2022-09-11T23:43:01.779Z,12.18
2022-09-11T23:45:48.838Z,13.02
2022-09-11T23:48:42.824Z,12.40
2022-09-11T23:51:29.894Z,12.77
2022-09-11T23:54:23.773Z,12.65
2022-09-11T23:57:17.760Z,13.45
